createdAt,value
2022-12-18T01:53:25.400Z,1.45
2022-12-18T01:55:55.328Z,1.72
2022-12-18T01:58:29.813Z,1.69
2022-12-18T02:00:57.918Z,1.65
2022-12-18T02:03:25.635Z,1.40
2022-12-18T02:06:05.744Z,1.63
2022-12-18T02:08:42.864Z,1.52
2022-12-18T02:11:17.304Z,1.44
2022-12-18T02:13:54.192Z,1.43
2022-12-18T02:16:30.706Z,1.52
2022-12-18T02:19:01.802Z,1.46
2022-12-18T02:21:37.810Z,1.50
2022-12-18T02:24:18.860Z,1.54
2022-12-18T02:26:51.544Z,1.49
2022-12-18T02:29:23.940Z,1.54
2022-12-18T02:31:55.477Z,1.65
2022-12-18T02:34:27.051Z,1.55
2022-12-18T02:36:56.801Z,1.66
2022-12-18T02:39:30.224Z,1.69
2022-12-18T02:42:08.655Z,1.61
2022-12-18T02:44:42.571Z,1.51
2022-12-18T02:47:12.402Z,1.50
2022-12-18T02:49:50.253Z,1.49
2022-12-18T02:52:26.868Z,1.45
2022-12-18T02:55:06.528Z,1.30
2022-12-18T02:57:43.583Z,1.39
2022-12-18T03:00:14.584Z,1.29
2022-12-18T03:02:48.554Z,1.21
2022-12-18T03:05:20.505Z,0.99
2022-12-18T03:07:54.735Z,0.78
2022-12-18T03:10:28.392Z,0.62
2022-12-18T03:13:03.152Z,0.32
2022-12-18T03:15:36.189Z,0.42
2022-12-18T03:18:10.185Z,0.22
2022-12-18T03:20:40.849Z,0.11
2022-12-18T03:23:12.926Z,0.24
2022-12-18T03:25:42.965Z,0.14
2022-12-18T03:28:15.961Z,-0.06
2022-12-18T03:30:47.132Z,-0.05
2022-12-18T03:33:20.070Z,-0.07
2022-12-18T03:35:47.946Z,-0.04
2022-12-18T03:38:15.610Z,-0.06
2022-12-18T03:40:58.166Z,-0.06
2022-12-18T03:43:40.077Z,-0.14
2022-12-18T03:46:15.646Z,-0.12
2022-12-18T03:48:49.394Z,-0.17
2022-12-18T03:51:23.703Z,-0.19
2022-12-18T03:53:56.950Z,-0.22
2022-12-18T03:56:26.676Z,-0.29
2022-12-18T03:58:58.690Z,-0.52
2022-12-18T04:01:32.012Z,-0.33
2022-12-18T04:04:02.278Z,-0.52
2022-12-18T04:06:34.011Z,-0.52
2022-12-18T04:09:01.914Z,-0.58
2022-12-18T04:11:29.625Z,-0.57
2022-12-18T04:13:59.745Z,-0.65
2022-12-18T04:16:28.126Z,-0.48
2022-12-18T04:18:55.739Z,-0.58
2022-12-18T04:21:25.042Z,-0.50
2022-12-18T04:23:52.823Z,-0.46
2022-12-18T04:26:20.614Z,-0.46
2022-12-18T04:28:48.389Z,-0.64
2022-12-18T04:31:17.602Z,-0.44
2022-12-18T04:33:45.234Z,-0.30
2022-12-18T04:36:13.084Z,-0.29
2022-12-18T04:38:41.054Z,-0.30
2022-12-18T04:41:08.718Z,-0.74
2022-12-18T04:43:37.263Z,-0.55
2022-12-18T04:46:06.489Z,-0.62
2022-12-18T04:48:36.365Z,-0.56
2022-12-18T04:51:04.895Z,-0.65
2022-12-18T04:53:33.000Z,-0.65
2022-12-18T04:56:05.616Z,-0.62
2022-12-18T04:58:33.351Z,-0.67
2022-12-18T05:01:02.462Z,-0.69
2022-12-18T05:03:30.809Z,-0.74
2022-12-18T05:06:14.774Z,-1.03
2022-12-18T05:08:42.601Z,-0.91
2022-12-18T05:11:15.675Z,-0.91
2022-12-18T05:13:44.264Z,-0.89
2022-12-18T05:16:13.399Z,-0.93
2022-12-18T05:18:41.981Z,-1.08
2022-12-18T05:21:10.125Z,-1.12
2022-12-18T05:23:40.744Z,-1.05
2022-12-18T05:26:09.609Z,-1.15
2022-12-18T05:28:37.896Z,-1.09
2022-12-18T05:31:06.319Z,-1.14
2022-12-18T05:33:35.513Z,-1.19
2022-12-18T05:36:05.697Z,-1.46
2022-12-18T05:38:35.057Z,-1.27
2022-12-18T05:41:05.434Z,-1.25
2022-12-18T05:43:35.546Z,-1.41
2022-12-18T05:46:08.226Z,-1.20
2022-12-18T05:48:36.245Z,-1.36
2022-12-18T05:51:09.988Z,-1.28
2022-12-18T05:53:38.921Z,-1.44
2022-12-18T05:56:10.479Z,-1.47
2022-12-18T05:58:38.516Z,-1.39
2022-12-18T06:01:12.415Z,-1.21
2022-12-18T06:03:40.939Z,-1.15
2022-12-18T06:06:15.880Z,-1.30
2022-12-18T06:08:46.468Z,-1.13
2022-12-18T06:11:19.303Z,-1.17
2022-12-18T06:13:47.645Z,-1.26
2022-12-18T06:16:15.668Z,-1.09
2022-12-18T06:21:25.633Z,-1.03
2022-12-18T06:23:53.517Z,-0.90
2022-12-18T06:26:28.070Z,-0.95
2022-12-18T06:28:56.808Z,-0.85
2022-12-18T06:31:25.079Z,-0.86
2022-12-18T06:33:53.155Z,-0.76
2022-12-18T06:36:22.714Z,-0.71
2022-12-18T06:38:50.485Z,-0.63
2022-12-18T06:41:20.295Z,-0.60
2022-12-18T06:43:49.814Z,-0.66
2022-12-18T06:46:47.952Z,-0.80
2022-12-18T06:49:30.768Z,-0.46
2022-12-18T06:52:00.855Z,-0.40
2022-12-18T06:54:28.722Z,-0.48
2022-12-18T06:56:56.446Z,-0.45
2022-12-18T06:59:25.592Z,-0.37
2022-12-18T07:01:54.067Z,-0.15
2022-12-18T07:04:22.667Z,-0.22
2022-12-18T07:06:50.563Z,-0.10
2022-12-18T07:09:18.657Z,0.04
2022-12-18T07:14:42.396Z,0.08
2022-12-18T07:17:10.955Z,0.18
2022-12-18T07:19:38.935Z,0.19
2022-12-18T07:22:12.572Z,0.42
2022-12-18T07:24:40.748Z,0.33
2022-12-18T07:27:08.431Z,0.06
2022-12-18T07:29:37.865Z,-0.27
2022-12-18T07:32:08.110Z,-0.18
2022-12-18T07:34:36.355Z,-0.25
2022-12-18T07:37:04.970Z,-0.35
2022-12-18T07:39:32.800Z,-0.42
2022-12-18T07:42:00.473Z,-0.48
2022-12-18T07:44:28.389Z,-0.39
2022-12-18T07:46:56.603Z,-0.29
2022-12-18T07:49:25.772Z,-0.29
2022-12-18T07:51:55.636Z,-0.24
2022-12-18T07:54:23.676Z,-0.23
2022-12-18T07:56:51.584Z,-0.10
2022-12-18T07:59:19.462Z,0.02
2022-12-18T08:01:47.160Z,0.14
2022-12-18T08:04:14.796Z,0.20
2022-12-18T08:06:47.767Z,0.09
2022-12-18T08:09:16.107Z,0.17
2022-12-18T08:11:43.773Z,0.25
2022-12-18T08:14:11.801Z,0.33
2022-12-18T08:16:39.724Z,0.40
2022-12-18T08:19:07.338Z,0.47
2022-12-18T08:21:36.849Z,0.52
2022-12-18T08:24:06.823Z,0.51
2022-12-18T08:26:34.439Z,0.54
2022-12-18T08:29:02.428Z,0.55
2022-12-18T08:31:31.420Z,0.50
2022-12-18T08:33:59.640Z,0.46
2022-12-18T08:36:27.405Z,0.37
2022-12-18T10:59:57.100Z,-0.29
2022-12-18T11:02:36.926Z,0.15
2022-12-18T11:48:39.432Z,-0.18
2022-12-18T11:51:13.915Z,-0.26
2022-12-18T11:56:33.151Z,-0.18
2022-12-18T11:59:10.165Z,-0.38
2022-12-18T12:02:10.462Z,-0.51
2022-12-18T12:05:05.681Z,-0.39
2022-12-18T12:07:44.933Z,-0.25
2022-12-18T12:10:34.282Z,-0.48
2022-12-18T12:13:38.992Z,-0.51
2022-12-18T12:16:15.940Z,-0.23
2022-12-18T12:19:00.104Z,-0.09
2022-12-18T12:21:37.683Z,-0.21
2022-12-18T12:24:22.461Z,-0.32
2022-12-18T12:27:02.343Z,-0.35
2022-12-18T12:29:47.359Z,-0.30
2022-12-18T12:32:31.030Z,-0.28
2022-12-18T12:35:13.107Z,-0.26
2022-12-18T12:37:52.932Z,-0.28
2022-12-18T12:43:27.031Z,-0.27
2022-12-18T12:45:58.372Z,-0.29
2022-12-18T12:48:39.080Z,-0.30
2022-12-18T12:51:14.171Z,-0.42
2022-12-18T12:53:43.846Z,-0.45
2022-12-18T12:56:15.831Z,-0.49
2022-12-18T12:58:53.749Z,-0.54
2022-12-18T13:01:29.474Z,-0.59
2022-12-18T13:04:09.998Z,-0.59
2022-12-18T13:09:36.846Z,-0.65
2022-12-18T13:12:12.714Z,-0.67
2022-12-18T13:14:42.037Z,-0.74
2022-12-18T13:17:30.130Z,-0.76
2022-12-18T13:20:07.553Z,-0.81
2022-12-18T13:22:37.824Z,-0.76
2022-12-18T13:25:32.970Z,-0.82
2022-12-18T13:28:10.618Z,-0.82
2022-12-18T13:30:59.475Z,-0.83
2022-12-18T13:34:24.451Z,-0.92
2022-12-18T13:36:36.238Z,-0.90
2022-12-18T13:42:38.509Z,-0.97
2022-12-18T13:45:32.645Z,-0.92
2022-12-18T13:48:00.518Z,-0.96
2022-12-18T13:50:35.303Z,-0.91
2022-12-18T13:53:05.589Z,-0.90
2022-12-18T13:55:35.561Z,-0.94
2022-12-18T13:58:07.638Z,-0.95
2022-12-18T14:00:36.628Z,-0.93
2022-12-18T14:03:22.129Z,-0.95
2022-12-18T14:06:02.598Z,-0.95
2022-12-18T14:08:36.527Z,-1.02
2022-12-18T14:11:07.757Z,-1.03
2022-12-18T14:13:43.565Z,-1.03
2022-12-18T14:16:16.025Z,-1.04
2022-12-18T14:18:47.447Z,-1.02
2022-12-18T14:21:22.659Z,-0.98
2022-12-18T14:24:03.816Z,-0.95
2022-12-18T14:26:32.838Z,-0.96
2022-12-18T14:29:21.594Z,-0.96
2022-12-18T14:32:21.819Z,-1.02
2022-12-18T14:34:51.207Z,-1.08
2022-12-18T14:37:22.926Z,-1.13
2022-12-18T14:39:54.346Z,-1.04
2022-12-18T14:42:22.319Z,-1.09
2022-12-18T14:45:12.798Z,-1.07
2022-12-18T14:47:39.833Z,-1.12
2022-12-18T14:50:14.880Z,-1.12
2022-12-18T14:52:42.886Z,-1.14
2022-12-18T14:55:16.769Z,-1.16
2022-12-18T14:57:45.277Z,-1.10
2022-12-18T15:00:19.314Z,-1.11
2022-12-18T15:02:49.538Z,-1.09
2022-12-18T15:05:19.791Z,-1.10
2022-12-18T15:07:49.485Z,-1.09
2022-12-18T15:10:19.506Z,-1.05
2022-12-18T15:12:51.887Z,-1.07
2022-12-18T15:15:49.797Z,-1.02
2022-12-18T15:18:19.724Z,-1.05
2022-12-18T15:20:49.959Z,-1.05
2022-12-18T15:31:05.505Z,-1.05
2022-12-18T15:33:35.488Z,-1.13
2022-12-18T15:36:05.552Z,-1.15
2022-12-18T15:38:33.362Z,-1.10
2022-12-18T15:41:01.570Z,-1.11
2022-12-18T15:43:30.050Z,-1.13
2022-12-18T15:45:57.734Z,-1.11
2022-12-18T15:48:29.793Z,-1.12
2022-12-18T15:50:58.946Z,-1.14
2022-12-18T15:53:30.150Z,-1.13
2022-12-18T15:56:01.162Z,-1.16
2022-12-18T15:58:30.184Z,-1.16
2022-12-18T16:01:00.570Z,-1.16
2022-12-18T16:03:29.714Z,-1.10
2022-12-18T16:05:57.778Z,-1.10
2022-12-18T16:08:26.260Z,-1.24
2022-12-18T16:10:53.917Z,-1.18
2022-12-18T16:13:21.959Z,-1.17
2022-12-18T16:15:49.834Z,-1.17
2022-12-18T16:18:17.476Z,-1.22
2022-12-18T16:20:46.786Z,-1.23
2022-12-18T16:23:14.570Z,-1.14
2022-12-18T16:25:42.413Z,-1.14
2022-12-18T16:28:13.088Z,-1.14
2022-12-18T16:30:40.660Z,-1.17
2022-12-18T16:33:10.607Z,-1.17
2022-12-18T16:35:38.357Z,-1.18
2022-12-18T16:38:07.534Z,-1.13
2022-12-18T16:40:35.134Z,-1.28
2022-12-18T16:43:03.027Z,-1.16
2022-12-18T16:45:31.018Z,-1.24
2022-12-18T16:47:58.685Z,-1.20
2022-12-18T16:50:26.622Z,-1.16
2022-12-18T16:52:54.232Z,-1.17
2022-12-18T16:55:23.236Z,-1.13
2022-12-18T16:57:51.130Z,-1.18
2022-12-18T17:00:19.046Z,-1.20
2022-12-18T17:02:46.770Z,-1.21
2022-12-18T17:05:15.246Z,-1.20
2022-12-18T17:07:42.845Z,-1.20
2022-12-18T17:10:10.908Z,-1.18
2022-12-18T17:12:41.718Z,-1.19
2022-12-18T17:15:11.328Z,-1.19
2022-12-18T17:17:39.077Z,-1.19
2022-12-18T17:20:07.938Z,-1.24
2022-12-18T17:22:36.265Z,-1.20
2022-12-18T17:25:05.100Z,-1.22
2022-12-18T17:27:33.060Z,-1.16
2022-12-18T17:30:02.072Z,-1.18
2022-12-18T17:32:30.131Z,-1.19
2022-12-18T17:35:01.466Z,-1.19
2022-12-18T17:37:32.056Z,-1.23
2022-12-18T17:40:00.522Z,-1.16
2022-12-18T17:42:28.276Z,-1.18
2022-12-18T17:44:55.898Z,-1.16
2022-12-18T17:47:25.318Z,-1.16
2022-12-18T17:49:53.085Z,-1.16
2022-12-18T17:52:22.461Z,-1.17
2022-12-18T17:54:50.295Z,-1.19
2022-12-18T17:57:17.881Z,-1.20
2022-12-18T17:59:45.787Z,-1.24
2022-12-18T18:02:13.766Z,-1.22
2022-12-18T18:04:43.504Z,-1.21
2022-12-18T18:07:11.351Z,-1.19
2022-12-18T18:09:39.952Z,-1.28
2022-12-18T18:12:08.870Z,-1.33
2022-12-18T18:14:37.197Z,-1.29
2022-12-18T18:17:05.768Z,-1.28
2022-12-18T18:19:33.955Z,-1.32
2022-12-18T18:22:03.636Z,-1.29
2022-12-18T18:24:33.436Z,-1.20
2022-12-18T18:27:00.985Z,-1.21
2022-12-18T18:29:29.354Z,-1.21
2022-12-18T18:31:57.577Z,-1.20
2022-12-18T18:34:27.823Z,-1.24
2022-12-18T18:36:55.614Z,-1.25
2022-12-18T18:39:25.254Z,-1.28
2022-12-18T18:41:53.342Z,-1.28
2022-12-18T18:44:25.784Z,-1.25
2022-12-18T18:46:55.184Z,-1.31
2022-12-18T18:49:23.536Z,-1.30
2022-12-18T18:51:51.444Z,-1.26
2022-12-18T18:54:19.668Z,-1.22
2022-12-18T18:57:19.478Z,-1.26
2022-12-18T18:59:37.475Z,-1.42
2022-12-18T19:02:09.287Z,-1.35
2022-12-18T19:04:40.908Z,-1.42
2022-12-18T19:07:23.844Z,-1.46
2022-12-18T19:10:04.838Z,-1.49
2022-12-18T19:12:35.296Z,-1.51
2022-12-18T19:15:06.818Z,-1.57
2022-12-18T19:17:34.682Z,-1.51
2022-12-18T19:20:02.984Z,-1.59
2022-12-18T19:22:32.028Z,-1.65
2022-12-18T19:25:00.006Z,-1.63
2022-12-18T19:27:27.670Z,-1.65
2022-12-18T19:29:56.967Z,-1.76
2022-12-18T19:32:24.847Z,-1.86
2022-12-18T19:34:53.459Z,-1.91
2022-12-18T19:37:24.725Z,-1.87
2022-12-18T19:40:00.155Z,-1.89
2022-12-18T19:42:35.363Z,-1.99
2022-12-18T19:45:05.905Z,-1.99
2022-12-18T19:47:33.711Z,-2.00
2022-12-18T19:50:01.376Z,-1.97
2022-12-18T19:52:29.409Z,-2.04
2022-12-18T19:54:57.160Z,-2.09
2022-12-18T19:57:24.788Z,-2.05
2022-12-18T19:59:52.721Z,-2.04
2022-12-18T20:02:22.116Z,-2.02
2022-12-18T20:04:52.986Z,-2.02
2022-12-18T20:07:21.503Z,-1.98
2022-12-18T20:09:51.650Z,-1.99
2022-12-18T20:12:25.340Z,-1.92
2022-12-18T20:14:55.375Z,-1.92
2022-12-18T20:17:24.347Z,-1.89
2022-12-18T20:19:52.623Z,-1.94
2022-12-18T20:22:20.402Z,-1.82
2022-12-18T20:24:48.002Z,-1.89
2022-12-18T20:27:19.581Z,-1.86
2022-12-18T20:29:47.304Z,-1.84
2022-12-18T20:32:15.109Z,-1.84
2022-12-18T20:34:44.682Z,-1.90
2022-12-18T20:37:12.842Z,-1.94
2022-12-18T20:39:41.041Z,-1.90
2022-12-18T20:42:09.713Z,-1.90
2022-12-18T20:44:37.954Z,-1.92
2022-12-18T20:47:08.659Z,-1.92
2022-12-18T20:49:37.290Z,-1.93
2022-12-18T20:52:11.108Z,-1.86
2022-12-18T20:54:39.584Z,-1.92
2022-12-18T20:57:07.154Z,-1.97
2022-12-18T20:59:34.746Z,-1.98
2022-12-18T21:02:02.867Z,-2.04
2022-12-18T21:04:30.708Z,-1.99
2022-12-18T21:07:02.692Z,-1.98
2022-12-18T21:09:37.100Z,-2.02
2022-12-18T21:12:13.203Z,-2.08
2022-12-18T21:14:43.065Z,-2.08
2022-12-18T21:17:11.070Z,-2.19
2022-12-18T21:19:38.796Z,-2.15
2022-12-18T21:22:06.775Z,-2.16
2022-12-18T21:24:35.957Z,-2.14
2022-12-18T21:27:03.576Z,-2.15
2022-12-18T21:29:31.777Z,-2.17
2022-12-18T21:31:59.582Z,-2.16
2022-12-18T21:34:29.806Z,-2.16
2022-12-18T21:36:59.505Z,-2.19
2022-12-18T21:39:29.799Z,-2.24
2022-12-18T21:41:59.648Z,-2.26
2022-12-18T21:44:27.310Z,-2.23
2022-12-18T21:46:58.376Z,-2.38
2022-12-18T21:49:31.826Z,-2.28
2022-12-18T21:52:01.193Z,-2.29
2022-12-18T21:54:29.452Z,-2.29
2022-12-18T21:57:00.304Z,-2.39
2022-12-18T21:59:30.253Z,-2.34
2022-12-18T22:01:59.999Z,-2.33
2022-12-18T22:04:31.389Z,-2.42
2022-12-18T22:07:00.631Z,-2.47
2022-12-18T22:09:28.282Z,-2.59
2022-12-18T22:11:55.877Z,-2.58
2022-12-18T22:14:25.431Z,-2.63
2022-12-18T22:16:53.205Z,-2.69
2022-12-18T22:19:21.029Z,-2.71
2022-12-18T22:21:49.924Z,-2.72
2022-12-18T22:24:19.702Z,-2.74
2022-12-18T22:26:47.777Z,-2.73
2022-12-18T22:29:17.893Z,-2.66
2022-12-18T22:31:47.225Z,-2.70
2022-12-18T22:34:14.914Z,-2.64
2022-12-18T22:36:45.095Z,-2.67
2022-12-18T22:39:15.436Z,-2.68
2022-12-18T22:41:43.467Z,-2.67
2022-12-18T22:44:11.302Z,-2.67
2022-12-18T22:46:45.019Z,-2.69
2022-12-18T22:49:17.122Z,-2.73
2022-12-18T22:51:45.079Z,-2.76
2022-12-18T22:54:13.170Z,-2.83
2022-12-18T22:56:41.093Z,-2.88
2022-12-18T22:59:15.653Z,-2.95
2022-12-18T23:01:44.879Z,-3.07
2022-12-18T23:04:16.119Z,-3.09
2022-12-18T23:06:45.109Z,-3.04
2022-12-18T23:09:18.046Z,-2.98
2022-12-18T23:11:46.499Z,-3.07
2022-12-18T23:14:15.604Z,-3.15
2022-12-18T23:16:43.699Z,-3.11
2022-12-18T23:19:15.495Z,-3.11
2022-12-18T23:21:43.073Z,-3.09
2022-12-18T23:24:10.750Z,-3.05
2022-12-18T23:26:39.148Z,-3.14
2022-12-18T23:29:07.119Z,-3.11
2022-12-18T23:31:36.438Z,-3.11
2022-12-18T23:34:05.657Z,-3.15
2022-12-18T23:36:35.870Z,-3.07
2022-12-18T23:39:25.407Z,-3.09
2022-12-18T23:41:56.910Z,-3.08
2022-12-18T23:44:25.043Z,-3.11
